createdAt,value
2022-11-21T00:00:02.105Z,154.88
2022-11-21T00:00:15.295Z,150.35
2022-11-21T00:00:49.536Z,155.55
2022-11-21T00:01:12.245Z,158.35
2022-11-21T00:01:26.936Z,155.75
2022-11-21T00:01:40.544Z,153.73
2022-11-21T00:01:53.204Z,154.93
2022-11-21T00:02:05.892Z,154.82
2022-11-21T00:02:18.701Z,155.50
2022-11-21T00:02:31.372Z,151.60
2022-11-21T00:02:43.950Z,149.80
2022-11-21T00:02:58.885Z,153.77
2022-11-21T00:03:12.871Z,157.80
2022-11-21T00:03:25.509Z,159.90
2022-11-21T00:03:38.556Z,163.80
2022-11-21T00:03:51.644Z,163.98
2022-11-21T00:04:04.915Z,158.10
2022-11-21T00:04:18.567Z,153.52
2022-11-21T00:04:31.453Z,158.48
2022-11-21T00:04:45.408Z,157.13
2022-11-21T00:04:58.049Z,153.70
2022-11-21T00:05:10.998Z,151.43
2022-11-21T00:05:23.632Z,150.43
2022-11-21T00:05:40.057Z,149.25
2022-11-21T00:05:53.617Z,144.73
2022-11-21T00:06:06.203Z,140.73
2022-11-21T00:06:19.477Z,135.40
2022-11-21T00:06:32.037Z,128.88
2022-11-21T00:06:44.643Z,122.53
2022-11-21T00:06:57.228Z,121.80
2022-11-21T00:07:09.915Z,122.45
2022-11-21T00:07:22.559Z,117.30
2022-11-21T00:07:36.221Z,114.57
2022-11-21T00:07:49.889Z,113.38
2022-11-21T00:08:02.556Z,107.93
2022-11-21T00:08:17.541Z,105.22
2022-11-21T00:08:30.665Z,102.90
2022-11-21T00:08:45.088Z,97.70
2022-11-21T00:08:57.713Z,97.95
2022-11-21T00:09:10.309Z,97.05
2022-11-21T00:09:22.954Z,96.30
2022-11-21T00:09:36.859Z,94.15
2022-11-21T00:09:49.597Z,93.93
2022-11-21T00:10:02.309Z,93.30
2022-11-21T00:10:15.906Z,88.40
2022-11-21T00:10:28.509Z,86.68
2022-11-21T00:10:41.812Z,85.35
2022-11-21T00:10:54.385Z,86.95
2022-11-21T00:11:07.010Z,89.40
2022-11-21T00:11:20.682Z,89.00
2022-11-21T00:11:33.319Z,81.13
2022-11-21T00:11:45.952Z,79.88
2022-11-21T00:11:58.593Z,79.32
2022-11-21T00:12:11.220Z,78.93
2022-11-21T00:12:23.864Z,80.50
2022-11-21T00:12:37.449Z,81.90
2022-11-21T00:12:54.154Z,83.43
2022-11-21T00:13:07.661Z,84.57
2022-11-21T00:13:21.112Z,84.15
2022-11-21T00:13:33.906Z,80.75
2022-11-21T00:13:47.518Z,78.25
2022-11-21T00:14:00.209Z,77.88
2022-11-21T00:14:12.792Z,74.95
2022-11-21T00:14:25.710Z,73.47
2022-11-21T00:14:38.583Z,76.22
2022-11-21T00:14:51.217Z,75.75
2022-11-21T00:15:04.383Z,74.93
2022-11-21T00:15:18.269Z,74.25
2022-11-21T00:15:31.041Z,71.90
2022-11-21T00:15:44.048Z,71.82
2022-11-21T00:15:56.728Z,71.18
2022-11-21T00:16:10.904Z,70.53
2022-11-21T00:16:24.504Z,69.82
2022-11-21T00:16:37.194Z,67.90
2022-11-21T00:16:56.002Z,66.13
2022-11-21T00:17:10.262Z,66.70
2022-11-21T00:17:22.898Z,64.80
2022-11-21T00:17:35.534Z,66.32
2022-11-21T00:17:48.516Z,68.10
2022-11-21T00:18:02.850Z,67.07
2022-11-21T00:18:16.937Z,69.07
2022-11-21T00:18:29.546Z,69.13
2022-11-21T00:18:42.480Z,68.30
2022-11-21T00:18:55.151Z,71.70
2022-11-21T00:19:07.739Z,71.20
2022-11-21T00:19:20.359Z,70.40
2022-11-21T00:19:33.731Z,71.40
2022-11-21T00:19:48.757Z,69.05
2022-11-21T00:20:01.398Z,68.13
2022-11-21T00:20:13.983Z,67.93
2022-11-21T00:20:26.587Z,65.70
2022-11-21T00:20:39.969Z,64.10
2022-11-21T00:20:52.568Z,64.38
2022-11-21T00:21:06.361Z,65.18
2022-11-21T00:21:21.719Z,68.75
2022-11-21T00:21:34.492Z,68.55
2022-11-21T00:21:47.081Z,66.22
2022-11-21T00:21:59.967Z,65.43
2022-11-21T00:22:12.559Z,67.28
2022-11-21T00:22:25.275Z,66.60
2022-11-21T00:22:37.862Z,65.68
2022-11-21T00:22:50.498Z,64.68
2022-11-21T00:23:04.433Z,62.17
2022-11-21T00:23:16.983Z,59.72
2022-11-21T00:23:29.547Z,61.17
2022-11-21T00:23:42.454Z,60.45
2022-11-21T00:23:55.016Z,61.47
2022-11-21T00:24:10.433Z,61.72
2022-11-21T00:24:23.045Z,63.63
2022-11-21T00:24:36.658Z,63.50
2022-11-21T00:24:53.902Z,62.70
2022-11-21T00:25:07.947Z,62.33
2022-11-21T00:25:20.549Z,59.88
2022-11-21T00:25:33.217Z,60.35
2022-11-21T00:25:45.794Z,60.45
2022-11-21T00:25:58.423Z,58.40
2022-11-21T00:26:13.476Z,59.28
2022-11-21T00:26:26.382Z,57.65
2022-11-21T00:26:39.100Z,57.13
2022-11-21T00:26:51.699Z,59.17
2022-11-21T00:27:04.405Z,60.70
2022-11-21T00:27:17.015Z,59.05
2022-11-21T00:27:29.661Z,59.14
2022-11-21T00:27:43.720Z,59.28
2022-11-21T00:27:56.446Z,59.00
2022-11-21T00:28:09.079Z,59.75
2022-11-21T00:28:21.722Z,60.53
2022-11-21T00:28:34.685Z,61.33
2022-11-21T00:28:47.297Z,60.67
2022-11-21T00:29:00.879Z,59.83
2022-11-21T00:29:13.479Z,60.67
2022-11-21T00:29:26.079Z,60.95
2022-11-21T00:29:38.702Z,61.78
2022-11-21T00:29:51.276Z,62.63
2022-11-21T00:30:04.700Z,64.82
2022-11-21T00:30:17.390Z,63.80
2022-11-21T00:30:31.593Z,61.72
2022-11-21T00:30:44.207Z,60.88
2022-11-21T00:30:57.103Z,59.80
2022-11-21T00:31:10.111Z,60.38
2022-11-21T00:31:24.160Z,60.03
2022-11-21T00:31:36.751Z,60.05
2022-11-21T00:31:50.515Z,61.05
2022-11-21T00:32:03.204Z,60.25
2022-11-21T00:32:15.835Z,58.97
2022-11-21T00:32:28.534Z,59.20
2022-11-21T00:32:41.123Z,63.60
2022-11-21T00:32:54.722Z,65.05
2022-11-21T00:33:07.305Z,63.00
2022-11-21T00:33:19.953Z,63.45
2022-11-21T00:33:34.538Z,63.75
2022-11-21T00:33:47.137Z,63.15
2022-11-21T00:33:59.714Z,62.15
2022-11-21T00:34:12.442Z,62.53
2022-11-21T00:34:25.419Z,62.10
2022-11-21T00:34:39.255Z,61.63
2022-11-21T00:34:53.275Z,64.47
2022-11-21T00:35:06.899Z,65.28
2022-11-21T00:35:20.075Z,65.15
2022-11-21T00:35:32.852Z,62.72
2022-11-21T00:35:45.446Z,62.28
2022-11-21T00:35:58.280Z,61.50
2022-11-21T00:36:11.970Z,64.35
2022-11-21T00:36:24.640Z,64.35
2022-11-21T00:36:37.296Z,60.20
2022-11-21T00:36:49.913Z,59.22
2022-11-21T00:37:02.484Z,62.65
2022-11-21T00:37:15.214Z,65.60
2022-11-21T00:37:28.067Z,65.68
2022-11-21T00:37:41.643Z,64.38
2022-11-21T00:37:54.521Z,67.25
2022-11-21T00:38:07.111Z,70.18
2022-11-21T00:38:19.782Z,67.88
2022-11-21T00:38:32.371Z,66.80
2022-11-21T00:38:45.026Z,65.38
2022-11-21T00:38:57.628Z,68.50
2022-11-21T00:39:11.341Z,71.30
2022-11-21T00:39:23.955Z,68.60
2022-11-21T00:39:36.546Z,65.03
2022-11-21T00:39:49.403Z,64.93
2022-11-21T00:40:02.058Z,64.43
2022-11-21T00:40:14.807Z,64.65
2022-11-21T00:40:27.415Z,67.55
2022-11-21T00:40:41.005Z,68.75
2022-11-21T00:40:53.645Z,74.85
2022-11-21T00:41:06.665Z,75.53
2022-11-21T00:41:19.384Z,72.68
2022-11-21T00:41:31.983Z,74.65
2022-11-21T00:41:45.174Z,79.35
2022-11-21T00:41:57.757Z,83.90
2022-11-21T00:42:11.364Z,87.65
2022-11-21T00:42:24.001Z,87.00
2022-11-21T00:42:36.626Z,83.38
2022-11-21T00:42:49.315Z,83.70
2022-11-21T00:43:01.923Z,80.85
2022-11-21T00:43:14.523Z,79.75
2022-11-21T00:43:27.222Z,81.65
2022-11-21T00:43:39.860Z,82.43
2022-11-21T00:43:53.441Z,80.82
2022-11-21T00:44:06.408Z,77.72
2022-11-21T00:44:19.082Z,75.75
2022-11-21T00:44:31.717Z,76.28
2022-11-21T00:44:44.357Z,76.80
2022-11-21T00:44:56.962Z,76.38
2022-11-21T00:45:10.559Z,73.80
2022-11-21T00:45:24.686Z,75.90
2022-11-21T00:45:38.698Z,74.60
2022-11-21T00:45:51.275Z,70.03
2022-11-21T00:46:04.429Z,70.80
2022-11-21T00:46:17.741Z,72.95
2022-11-21T00:46:30.403Z,74.05
2022-11-21T00:46:43.088Z,77.15
2022-11-21T00:46:56.681Z,76.68
2022-11-21T00:47:09.311Z,78.47
2022-11-21T00:47:21.957Z,81.50
2022-11-21T00:47:34.591Z,79.57
2022-11-21T00:47:47.298Z,78.15
2022-11-21T00:48:00.014Z,81.03
2022-11-21T00:48:12.650Z,80.45
2022-11-21T00:48:25.231Z,79.28
2022-11-21T00:48:39.078Z,79.70
2022-11-21T00:48:51.695Z,78.50
2022-11-21T00:49:04.280Z,78.78
2022-11-21T00:49:16.938Z,76.68
2022-11-21T00:49:29.519Z,76.95
2022-11-21T00:49:42.256Z,78.38
2022-11-21T00:49:56.284Z,81.60
2022-11-21T00:50:10.274Z,81.13
2022-11-21T00:50:23.851Z,80.25
2022-11-21T00:50:36.457Z,81.38
2022-11-21T00:50:49.471Z,80.03
2022-11-21T00:51:02.105Z,79.85
2022-11-21T00:51:14.687Z,79.65
2022-11-21T00:51:27.283Z,82.95
2022-11-21T00:51:39.955Z,84.75
2022-11-21T00:51:53.545Z,87.32
2022-11-21T00:52:06.169Z,87.15
2022-11-21T00:52:18.972Z,83.65
2022-11-21T00:52:31.599Z,82.65
2022-11-21T00:52:44.498Z,80.47
2022-11-21T00:52:57.291Z,77.95
2022-11-21T00:53:10.864Z,75.00
2022-11-21T00:53:23.552Z,78.88
2022-11-21T00:53:36.191Z,80.15
2022-11-21T00:53:48.945Z,77.95
2022-11-21T00:54:01.585Z,78.60
2022-11-21T00:54:14.215Z,78.88
2022-11-21T00:54:27.089Z,78.65
2022-11-21T00:54:39.873Z,78.97
2022-11-21T00:54:53.473Z,79.43
2022-11-21T00:55:06.441Z,76.90
2022-11-21T00:55:19.086Z,73.80
2022-11-21T00:55:31.737Z,71.15
2022-11-21T00:55:44.381Z,70.65
2022-11-21T00:55:57.681Z,70.82
2022-11-21T00:56:11.331Z,69.82
2022-11-21T00:56:23.957Z,69.93
2022-11-21T00:56:36.594Z,69.65
2022-11-21T00:56:49.240Z,70.45
2022-11-21T00:57:01.833Z,70.05
2022-11-21T00:57:14.762Z,70.40
2022-11-21T00:57:27.427Z,69.35
2022-11-21T00:57:41.041Z,67.90
2022-11-21T00:57:53.844Z,67.50
2022-11-21T00:58:06.511Z,68.78
2022-11-21T00:58:19.190Z,69.78
2022-11-21T00:58:31.812Z,67.85
2022-11-21T00:58:44.396Z,63.72
2022-11-21T00:58:56.989Z,64.75
2022-11-21T00:59:10.579Z,63.42
2022-11-21T00:59:23.324Z,65.07
2022-11-21T00:59:35.914Z,66.57
2022-11-21T00:59:48.677Z,66.65
2022-11-21T01:00:01.313Z,67.30
2022-11-21T01:00:14.881Z,65.88
2022-11-21T01:00:28.560Z,67.75
2022-11-21T01:00:41.245Z,67.80
2022-11-21T01:01:02.036Z,64.75
2022-11-21T01:01:15.854Z,63.17
2022-11-21T01:01:28.617Z,62.88
2022-11-21T01:01:41.616Z,64.00
2022-11-21T01:01:55.220Z,66.53
2022-11-21T01:02:07.805Z,69.15
2022-11-21T01:02:20.428Z,69.00
2022-11-21T01:02:33.066Z,65.93
2022-11-21T01:02:45.674Z,63.08
2022-11-21T01:02:58.267Z,63.65
2022-11-21T01:03:10.881Z,63.70
2022-11-21T01:03:23.478Z,66.18
2022-11-21T01:03:37.659Z,66.97
2022-11-21T01:03:50.343Z,67.38
2022-11-21T01:04:03.008Z,64.20
2022-11-21T01:04:15.915Z,64.22
2022-11-21T01:04:31.323Z,64.82
2022-11-21T01:04:44.062Z,62.30
2022-11-21T01:04:58.994Z,63.35
2022-11-21T01:05:11.609Z,65.20
2022-11-21T01:05:24.315Z,64.55
2022-11-21T01:05:37.037Z,63.70
2022-11-21T01:05:49.664Z,61.53
2022-11-21T01:06:03.907Z,63.65
2022-11-21T01:06:17.849Z,62.67
2022-11-21T01:06:30.506Z,60.30
2022-11-21T01:06:43.171Z,57.65
2022-11-21T01:06:55.830Z,58.92
2022-11-21T01:07:08.486Z,63.40
2022-11-21T01:07:21.117Z,64.32
2022-11-21T01:07:33.770Z,63.55
2022-11-21T01:07:48.721Z,61.90
2022-11-21T01:08:02.304Z,59.47
2022-11-21T01:08:14.968Z,60.40
2022-11-21T01:08:27.554Z,60.50
2022-11-21T01:08:42.177Z,59.80
2022-11-21T01:08:54.849Z,61.80
2022-11-21T01:09:07.485Z,61.83
2022-11-21T01:09:20.102Z,60.17
2022-11-21T01:09:33.938Z,61.08
2022-11-21T01:09:46.552Z,61.78
2022-11-21T01:09:59.319Z,61.58
2022-11-21T01:10:11.965Z,60.65
2022-11-21T01:10:24.620Z,62.15
2022-11-21T01:10:37.602Z,62.00
2022-11-21T01:10:51.206Z,59.25
2022-11-21T01:11:04.652Z,59.00
2022-11-21T01:11:20.275Z,64.25
2022-11-21T01:11:33.085Z,64.63
2022-11-21T01:11:45.678Z,62.63
2022-11-21T01:11:58.276Z,61.47
2022-11-21T01:12:10.948Z,57.78
2022-11-21T01:12:24.668Z,56.55
2022-11-21T01:12:37.266Z,58.92
2022-11-21T01:12:49.866Z,56.83
2022-11-21T01:13:02.688Z,57.25
2022-11-21T01:13:15.320Z,58.05
2022-11-21T01:13:27.907Z,58.63
2022-11-21T01:13:42.329Z,55.80
2022-11-21T01:13:55.069Z,55.12
2022-11-21T01:14:07.654Z,56.97
2022-11-21T01:14:20.346Z,56.20
2022-11-21T01:14:32.984Z,56.72
2022-11-21T01:14:46.548Z,54.58
2022-11-21T01:14:59.394Z,57.85
2022-11-21T01:15:12.273Z,58.17
2022-11-21T01:15:24.917Z,55.33
2022-11-21T01:15:37.579Z,54.83
2022-11-21T01:15:50.167Z,55.33
2022-11-21T01:16:04.940Z,54.63
2022-11-21T01:16:20.605Z,55.33
2022-11-21T01:16:34.302Z,57.70
2022-11-21T01:16:47.050Z,58.78
2022-11-21T01:16:59.707Z,57.17
2022-11-21T01:17:12.273Z,57.33
2022-11-21T01:17:24.872Z,57.70
2022-11-21T01:17:37.480Z,57.40
2022-11-21T01:17:50.060Z,59.13
2022-11-21T01:18:02.706Z,61.53
2022-11-21T01:18:16.369Z,62.75
2022-11-21T01:18:28.963Z,58.35
2022-11-21T01:18:42.530Z,58.53
2022-11-21T01:18:56.133Z,58.78
2022-11-21T01:19:08.936Z,58.20
2022-11-21T01:19:21.816Z,57.95
2022-11-21T01:19:35.382Z,61.92
2022-11-21T01:19:47.979Z,65.43
2022-11-21T01:20:01.965Z,67.28
2022-11-21T01:20:14.868Z,65.95
2022-11-21T01:20:27.474Z,65.57
2022-11-21T01:20:40.227Z,66.13
2022-11-21T01:20:52.834Z,63.22
2022-11-21T01:21:08.609Z,60.50
2022-11-21T01:21:23.448Z,60.30
2022-11-21T01:21:36.031Z,60.10
2022-11-21T01:21:48.835Z,60.38
2022-11-21T01:22:01.411Z,58.70
2022-11-21T01:22:14.032Z,56.75
2022-11-21T01:22:26.689Z,57.92
2022-11-21T01:22:40.364Z,59.63
2022-11-21T01:22:52.960Z,59.90
2022-11-21T01:23:05.554Z,62.03
2022-11-21T01:23:18.281Z,62.60
2022-11-21T01:23:31.091Z,63.72
2022-11-21T01:23:44.620Z,64.97
2022-11-21T01:24:00.038Z,63.90
2022-11-21T01:24:13.838Z,61.83
2022-11-21T01:24:26.695Z,60.80
2022-11-21T01:24:39.468Z,59.70
2022-11-21T01:24:52.106Z,60.40
2022-11-21T01:25:05.562Z,62.13
2022-11-21T01:25:18.276Z,62.08
2022-11-21T01:25:34.332Z,62.05
2022-11-21T01:25:46.917Z,61.13
2022-11-21T01:26:03.078Z,62.03
2022-11-21T01:26:17.363Z,60.58
2022-11-21T01:26:31.390Z,59.53
2022-11-21T01:26:44.106Z,61.97
2022-11-21T01:26:57.723Z,64.70
2022-11-21T01:27:10.359Z,65.20
2022-11-21T01:27:23.051Z,64.47
2022-11-21T01:27:35.644Z,64.07
2022-11-21T01:27:48.318Z,66.50
2022-11-21T01:28:00.883Z,68.43
2022-11-21T01:28:13.775Z,65.95
2022-11-21T01:28:26.386Z,63.80
2022-11-21T01:28:40.086Z,66.30
2022-11-21T01:28:52.999Z,64.03
2022-11-21T01:29:06.895Z,64.00
2022-11-21T01:29:19.514Z,64.30
2022-11-21T01:29:32.099Z,66.78
2022-11-21T01:29:44.694Z,67.80
2022-11-21T01:29:58.303Z,66.38
2022-11-21T01:30:11.998Z,63.67
2022-11-21T01:30:24.605Z,64.07
2022-11-21T01:30:37.243Z,65.45
2022-11-21T01:30:49.827Z,66.80
2022-11-21T01:31:06.622Z,65.88
2022-11-21T01:31:21.841Z,63.65
2022-11-21T01:31:34.840Z,63.70
2022-11-21T01:31:47.526Z,65.18
2022-11-21T01:32:00.335Z,64.88
2022-11-21T01:32:12.991Z,65.00
2022-11-21T01:32:25.846Z,66.85
2022-11-21T01:32:38.430Z,66.43
2022-11-21T01:32:52.446Z,66.43
2022-11-21T01:33:05.051Z,68.30
2022-11-21T01:33:17.634Z,69.00
2022-11-21T01:33:30.227Z,68.25
2022-11-21T01:33:42.930Z,68.38
2022-11-21T01:33:58.285Z,71.68
2022-11-21T01:34:11.071Z,76.43
2022-11-21T01:34:24.745Z,78.47
2022-11-21T01:34:37.558Z,78.93
2022-11-21T01:34:50.229Z,77.45
2022-11-21T01:35:04.568Z,72.90
2022-11-21T01:35:17.643Z,66.78
2022-11-21T01:35:30.252Z,67.22
2022-11-21T01:35:42.936Z,68.88
2022-11-21T01:35:55.544Z,67.95
2022-11-21T01:36:11.187Z,70.70
2022-11-21T01:36:25.206Z,79.15
2022-11-21T01:36:37.869Z,84.70
2022-11-21T01:36:50.728Z,85.72
2022-11-21T01:37:03.342Z,86.38
2022-11-21T01:37:15.931Z,84.57
2022-11-21T01:37:29.704Z,83.68
2022-11-21T01:37:42.329Z,80.90
2022-11-21T01:37:54.896Z,83.35
2022-11-21T01:38:07.659Z,84.60
2022-11-21T01:38:20.278Z,85.05
2022-11-21T01:38:33.329Z,84.97
2022-11-21T01:38:47.868Z,85.47
2022-11-21T01:39:02.237Z,84.07
2022-11-21T01:39:15.808Z,87.05
2022-11-21T01:39:29.266Z,93.40
2022-11-21T01:39:41.886Z,91.47
2022-11-21T01:39:55.261Z,88.50
2022-11-21T01:40:09.027Z,89.13
2022-11-21T01:40:21.617Z,88.45
2022-11-21T01:40:38.588Z,89.57
2022-11-21T01:40:51.179Z,85.22
2022-11-21T01:41:03.762Z,82.20
2022-11-21T01:41:19.478Z,84.78
2022-11-21T01:41:34.555Z,92.38
2022-11-21T01:41:47.452Z,91.28
2022-11-21T01:42:00.102Z,86.88
2022-11-21T01:42:13.598Z,88.07
2022-11-21T01:42:26.203Z,92.85
2022-11-21T01:42:52.806Z,97.75
2022-11-21T01:43:14.313Z,90.75
2022-11-21T01:43:26.917Z,90.53
2022-11-21T01:43:39.534Z,89.05
2022-11-21T01:43:52.112Z,88.03
2022-11-21T01:44:13.858Z,91.00
2022-11-21T01:44:46.398Z,89.95
2022-11-21T01:45:00.551Z,87.22
2022-11-21T01:45:46.313Z,88.97
2022-11-21T01:46:01.682Z,89.78
2022-11-21T01:46:15.720Z,92.88
2022-11-21T01:46:28.812Z,92.55
2022-11-21T01:46:41.429Z,90.43
2022-11-21T01:46:54.366Z,90.53
2022-11-21T01:47:06.967Z,91.55
2022-11-21T01:47:20.995Z,93.80
2022-11-21T01:47:34.570Z,91.20
2022-11-21T01:47:47.273Z,90.25
2022-11-21T01:47:59.893Z,91.47
2022-11-21T01:48:12.483Z,91.88
2022-11-21T01:48:29.976Z,91.20
2022-11-21T01:48:48.263Z,93.15
2022-11-21T01:49:05.925Z,93.70
2022-11-21T01:49:21.131Z,95.30
2022-11-21T01:49:33.950Z,91.47
2022-11-21T01:49:48.112Z,91.82
2022-11-21T01:50:00.758Z,92.22
2022-11-21T01:50:15.876Z,91.93
2022-11-21T01:50:28.500Z,93.43
2022-11-21T01:50:41.183Z,92.22
2022-11-21T01:50:56.231Z,92.63
2022-11-21T01:51:15.813Z,92.85
2022-11-21T01:51:32.962Z,96.00
2022-11-21T01:51:50.401Z,94.50
2022-11-21T01:52:07.900Z,92.30
2022-11-21T01:52:25.564Z,92.75
2022-11-21T01:52:38.193Z,94.53
2022-11-21T01:52:50.823Z,96.10
2022-11-21T01:53:03.578Z,92.50
2022-11-21T01:53:16.382Z,91.68
2022-11-21T01:53:29.282Z,91.78
2022-11-21T01:53:47.012Z,92.90
2022-11-21T01:54:06.653Z,94.03
2022-11-21T01:54:24.255Z,93.78
2022-11-21T01:54:40.400Z,95.07
2022-11-21T01:54:57.770Z,91.55
2022-11-21T01:55:11.853Z,89.75
2022-11-21T01:55:24.806Z,90.88
2022-11-21T01:55:37.824Z,92.13
2022-11-21T01:55:50.902Z,95.82
2022-11-21T01:56:04.084Z,96.15
2022-11-21T01:56:16.984Z,94.24
2022-11-21T01:56:32.294Z,95.85
2022-11-21T01:56:50.236Z,98.78
2022-11-21T01:57:08.569Z,96.18
2022-11-21T01:57:25.376Z,97.57
2022-11-21T01:57:41.297Z,97.43
2022-11-21T01:57:53.934Z,95.75
2022-11-21T01:58:06.773Z,95.65
2022-11-21T01:58:20.397Z,95.94
2022-11-21T01:58:35.969Z,93.18
2022-11-21T01:58:52.066Z,92.43
2022-11-21T01:59:06.943Z,95.93
2022-11-21T01:59:25.017Z,96.65
2022-11-21T01:59:41.259Z,96.95
2022-11-21T01:59:59.825Z,93.90
2022-11-21T02:00:18.498Z,95.55
2022-11-21T02:00:37.259Z,94.25
2022-11-21T02:00:50.723Z,90.75
2022-11-21T02:01:03.785Z,91.78
2022-11-21T02:01:18.600Z,91.38
2022-11-21T02:01:32.522Z,92.57
2022-11-21T02:01:47.657Z,91.88
2022-11-21T02:02:03.442Z,88.75
2022-11-21T02:02:20.731Z,87.50
2022-11-21T02:02:36.299Z,92.97
2022-11-21T02:02:55.360Z,93.90
2022-11-21T02:03:12.164Z,94.28
2022-11-21T02:03:29.285Z,90.60
2022-11-21T02:03:45.641Z,89.50
2022-11-21T02:04:02.186Z,90.88
2022-11-21T02:04:16.275Z,88.80
2022-11-21T02:04:31.998Z,90.53
2022-11-21T02:04:45.942Z,88.22
2022-11-21T02:05:00.894Z,87.93
2022-11-21T02:05:19.761Z,88.28
2022-11-21T02:05:35.582Z,87.18
2022-11-21T02:05:49.667Z,90.45
2022-11-21T02:06:02.329Z,90.38
2022-11-21T02:06:15.116Z,89.90
2022-11-21T02:06:28.210Z,88.78
2022-11-21T02:06:41.151Z,88.47
2022-11-21T02:06:54.033Z,89.80
2022-11-21T02:07:09.015Z,88.40
2022-11-21T02:07:23.553Z,88.70
2022-11-21T02:07:41.874Z,90.22
2022-11-21T02:07:57.421Z,91.55
2022-11-21T02:08:16.286Z,92.22
2022-11-21T02:08:30.061Z,91.80
2022-11-21T02:08:46.120Z,86.55
2022-11-21T02:09:01.178Z,84.03
2022-11-21T02:09:14.056Z,87.78
2022-11-21T02:09:26.833Z,89.07
2022-11-21T02:09:42.240Z,89.53
2022-11-21T02:10:00.254Z,88.05
2022-11-21T02:10:14.488Z,84.30
2022-11-21T02:10:27.577Z,87.45
2022-11-21T02:10:48.023Z,88.35
2022-11-21T02:11:10.428Z,86.78
2022-11-21T02:11:32.039Z,86.90
2022-11-21T02:11:51.186Z,85.78
2022-11-21T02:12:08.320Z,87.10
2022-11-21T02:12:26.451Z,84.90
2022-11-21T02:12:43.979Z,84.82
2022-11-21T02:12:59.859Z,88.05
2022-11-21T02:13:12.765Z,89.03
2022-11-21T02:13:25.411Z,88.70
2022-11-21T02:13:38.416Z,89.28
2022-11-21T02:13:51.012Z,86.68
2022-11-21T02:14:04.057Z,85.03
2022-11-21T02:14:18.006Z,86.32
2022-11-21T02:14:31.907Z,88.25
2022-11-21T02:14:44.884Z,87.50
2022-11-21T02:14:59.164Z,83.95
2022-11-21T02:15:12.518Z,85.45
2022-11-21T02:15:26.910Z,89.72
2022-11-21T02:15:39.688Z,91.20
2022-11-21T02:15:52.538Z,94.25
2022-11-21T02:16:07.816Z,95.18
2022-11-21T02:16:20.478Z,90.53
2022-11-21T02:16:34.823Z,87.32
2022-11-21T02:16:47.740Z,83.65
2022-11-21T02:17:03.478Z,83.80
2022-11-21T02:17:19.951Z,88.32
2022-11-21T02:17:33.120Z,87.88
2022-11-21T02:17:45.821Z,84.72
2022-11-21T02:17:58.430Z,85.68
2022-11-21T02:18:11.445Z,87.90
2022-11-21T02:18:24.055Z,90.20
2022-11-21T02:18:36.720Z,89.18
2022-11-21T02:18:49.390Z,87.38
2022-11-21T02:19:03.384Z,88.97
2022-11-21T02:19:22.792Z,90.60
2022-11-21T02:19:43.087Z,86.63
2022-11-21T02:19:58.574Z,90.78
2022-11-21T02:20:14.383Z,89.10
2022-11-21T02:20:29.802Z,88.25
2022-11-21T02:20:47.307Z,88.72
2022-11-21T02:21:08.022Z,87.03
2022-11-21T02:21:32.586Z,87.28
2022-11-21T02:21:54.122Z,86.25
2022-11-21T02:22:17.560Z,83.45
2022-11-21T02:22:37.018Z,86.47
2022-11-21T02:22:59.688Z,84.30
2022-11-21T02:23:19.980Z,84.30
2022-11-21T02:23:39.983Z,86.20
2022-11-21T02:24:01.545Z,89.72
2022-11-21T02:24:22.619Z,88.38
2022-11-21T02:24:43.315Z,84.88
2022-11-21T02:25:01.884Z,86.47
2022-11-21T02:25:18.108Z,91.20
2022-11-21T02:25:33.349Z,88.72
2022-11-21T02:25:46.146Z,89.72
2022-11-21T02:25:59.696Z,85.90
2022-11-21T02:26:12.419Z,82.38
2022-11-21T02:26:25.626Z,83.78
2022-11-21T02:26:38.445Z,83.20
2022-11-21T02:26:51.116Z,82.47
2022-11-21T02:27:05.114Z,81.35
2022-11-21T02:27:18.392Z,84.07
2022-11-21T02:27:31.286Z,86.75
2022-11-21T02:27:44.212Z,87.43
2022-11-21T02:27:59.896Z,84.82
2022-11-21T02:28:15.900Z,83.93
2022-11-21T02:28:29.649Z,83.75
2022-11-21T02:28:44.083Z,84.00
2022-11-21T02:28:57.071Z,82.90
2022-11-21T02:29:10.097Z,85.03
2022-11-21T02:29:22.880Z,84.15
2022-11-21T02:29:35.583Z,81.88
2022-11-21T02:29:48.334Z,84.07
2022-11-21T02:30:03.080Z,84.65
2022-11-21T02:30:16.722Z,81.03
2022-11-21T02:30:31.741Z,85.15
2022-11-21T02:30:44.382Z,87.32
2022-11-21T02:30:56.973Z,84.05
2022-11-21T02:31:09.609Z,83.10
2022-11-21T02:31:22.319Z,83.72
2022-11-21T02:31:34.919Z,82.32
2022-11-21T02:31:48.494Z,80.28
2022-11-21T02:32:05.373Z,83.03
2022-11-21T02:32:22.299Z,84.78
2022-11-21T02:32:36.787Z,85.07
2022-11-21T02:32:49.758Z,84.47
2022-11-21T02:33:02.741Z,82.38
2022-11-21T02:33:15.751Z,82.00
2022-11-21T02:33:29.391Z,85.13
2022-11-21T02:33:42.022Z,89.10
2022-11-21T02:33:54.636Z,85.63
2022-11-21T02:34:07.258Z,86.10
2022-11-21T02:34:19.976Z,87.10
2022-11-21T02:34:33.074Z,86.28
2022-11-21T02:34:45.650Z,83.85
2022-11-21T02:34:59.287Z,84.25
2022-11-21T02:35:11.860Z,83.63
2022-11-21T02:35:24.775Z,83.25
2022-11-21T02:35:37.686Z,84.80
2022-11-21T02:35:58.224Z,82.40
2022-11-21T02:36:35.803Z,85.10
2022-11-21T02:36:49.958Z,85.70
2022-11-21T02:37:02.640Z,87.80
2022-11-21T02:37:16.419Z,85.50
2022-11-21T02:37:29.880Z,83.47
2022-11-21T02:37:44.952Z,81.75
2022-11-21T02:37:59.728Z,82.55
2022-11-21T02:38:19.870Z,87.38
2022-11-21T02:38:36.536Z,87.82
2022-11-21T02:38:49.175Z,86.10
2022-11-21T02:39:02.316Z,82.68
2022-11-21T02:39:20.660Z,81.10
2022-11-21T02:39:37.173Z,84.35
2022-11-21T02:39:50.233Z,85.85
2022-11-21T02:40:09.692Z,85.20
2022-11-21T02:40:26.046Z,83.30
2022-11-21T02:40:42.658Z,82.68
2022-11-21T02:41:02.566Z,85.10
2022-11-21T02:41:26.748Z,84.30
2022-11-21T02:41:46.032Z,83.72
2022-11-21T02:42:07.999Z,80.78
2022-11-21T02:42:26.986Z,83.78
2022-11-21T02:42:50.107Z,85.60
2022-11-21T02:43:11.035Z,85.97
2022-11-21T02:43:28.172Z,86.25
2022-11-21T02:43:46.087Z,82.55
2022-11-21T02:44:04.732Z,85.60
2022-11-21T02:44:23.476Z,90.13
2022-11-21T02:44:43.723Z,87.63
2022-11-21T02:45:03.778Z,88.68
2022-11-21T02:45:22.213Z,87.15
2022-11-21T02:45:38.498Z,88.80
2022-11-21T02:45:51.133Z,86.32
2022-11-21T02:46:03.761Z,87.13
2022-11-21T02:46:17.459Z,85.78
2022-11-21T02:46:30.117Z,85.18
2022-11-21T02:46:49.062Z,86.72
2022-11-21T02:47:02.646Z,90.28
2022-11-21T02:47:15.283Z,89.45
2022-11-21T02:47:29.272Z,87.95
2022-11-21T02:47:43.985Z,88.63
2022-11-21T02:48:02.264Z,88.75
2022-11-21T02:48:17.531Z,84.03
2022-11-21T02:48:30.156Z,83.45
2022-11-21T02:48:43.465Z,86.25
2022-11-21T02:48:58.689Z,87.45
2022-11-21T02:49:11.594Z,89.70
2022-11-21T02:49:42.010Z,90.30
2022-11-21T02:50:00.279Z,93.00
2022-11-21T02:50:15.849Z,93.85
2022-11-21T02:50:30.145Z,91.13
2022-11-21T02:50:44.646Z,90.97
2022-11-21T02:50:57.517Z,91.88
2022-11-21T02:51:11.098Z,90.57
2022-11-21T02:51:23.717Z,88.30
2022-11-21T02:51:36.315Z,86.68
2022-11-21T02:51:48.963Z,88.38
2022-11-21T02:52:01.646Z,88.63
2022-11-21T02:52:14.245Z,88.53
2022-11-21T02:52:26.897Z,87.38
2022-11-21T02:52:39.498Z,87.80
2022-11-21T02:52:53.147Z,91.32
2022-11-21T02:53:08.115Z,90.05
2022-11-21T02:53:20.735Z,86.32
2022-11-21T02:53:33.693Z,89.88
2022-11-21T02:53:46.485Z,97.70
2022-11-21T02:53:59.187Z,97.07
2022-11-21T02:54:11.810Z,90.50
2022-11-21T02:54:25.596Z,90.03
2022-11-21T02:54:38.430Z,89.72
2022-11-21T02:54:51.129Z,90.40
2022-11-21T02:55:06.306Z,90.18
2022-11-21T02:55:18.903Z,87.05
2022-11-21T02:55:32.156Z,88.22
2022-11-21T02:55:46.269Z,88.68
2022-11-21T02:55:58.968Z,90.40
2022-11-21T02:56:12.096Z,91.38
2022-11-21T02:56:25.046Z,93.20
2022-11-21T02:56:37.995Z,95.50
2022-11-21T02:56:50.790Z,91.08
2022-11-21T02:57:03.517Z,89.10
2022-11-21T02:57:17.080Z,88.95
2022-11-21T02:57:29.733Z,91.47
2022-11-21T02:57:42.589Z,91.00
2022-11-21T02:57:59.047Z,92.13
2022-11-21T02:58:14.368Z,93.78
2022-11-21T02:58:28.130Z,91.63
2022-11-21T02:58:40.732Z,87.82
2022-11-21T02:58:53.320Z,88.63
2022-11-21T02:59:05.919Z,89.15
2022-11-21T02:59:18.513Z,89.82
2022-11-21T02:59:31.122Z,89.05
2022-11-21T02:59:43.979Z,88.03
2022-11-21T02:59:57.560Z,89.70
2022-11-21T03:00:11.642Z,92.78
2022-11-21T03:00:24.682Z,94.00
2022-11-21T03:00:38.982Z,93.22
2022-11-21T03:00:51.710Z,89.65